sensor_id;sensor_type;location;lat;lon;timestamp;P1;durP1;ratioP1;P2;durP2;ratioP2
39994;SDS011;25686;51.908;10.418;2023-11-19T00:01:41;0.40;;;0.30;;
39994;SDS011;25686;51.908;10.418;2023-11-19T00:03:42;0.30;;;0.30;;
39994;SDS011;25686;51.908;10.418;2023-11-19T00:05:44;0.20;;;0.20;;
39994;SDS011;25686;51.908;10.418;2023-11-19T00:07:45;0.30;;;0.30;;
39994;SDS011;25686;51.908;10.418;2023-11-19T00:09:46;1.90;;;0.20;;
39994;SDS011;25686;51.908;10.418;2023-11-19T00:11:47;0.20;;;0.20;;
39994;SDS011;25686;51.908;10.418;2023-11-19T00:13:48;0.30;;;0.20;;
39994;SDS011;25686;51.908;10.418;2023-11-19T00:15:49;0.20;;;0.20;;
39994;SDS011;25686;51.908;10.418;2023-11-19T00:17:50;0.20;;;0.20;;
39994;SDS011;25686;51.908;10.418;2023-11-19T00:19:51;0.30;;;0.30;;
39994;SDS011;25686;51.908;10.418;2023-11-19T00:21:52;0.35;;;0.35;;
39994;SDS011;25686;51.908;10.418;2023-11-19T00:23:53;0.30;;;0.30;;
39994;SDS011;25686;51.908;10.418;2023-11-19T00:25:54;0.30;;;0.30;;
39994;SDS011;25686;51.908;10.418;2023-11-19T00:27:55;0.30;;;0.30;;
39994;SDS011;25686;51.908;10.418;2023-11-19T00:29:56;0.40;;;0.40;;
39994;SDS011;25686;51.908;10.418;2023-11-19T00:31:57;0.35;;;0.35;;
39994;SDS011;25686;51.908;10.418;2023-11-19T00:33:58;0.80;;;0.40;;
39994;SDS011;25686;51.908;10.418;2023-11-19T00:35:59;0.20;;;0.20;;
39994;SDS011;25686;51.908;10.418;2023-11-19T00:38:00;0.20;;;0.20;;
39994;SDS011;25686;51.908;10.418;2023-11-19T00:40:02;0.40;;;0.30;;
39994;SDS011;25686;51.908;10.418;2023-11-19T00:42:05;0.32;;;0.30;;
39994;SDS011;25686;51.908;10.418;2023-11-19T00:44:06;0.30;;;0.30;;
39994;SDS011;25686;51.908;10.418;2023-11-19T00:46:07;0.20;;;0.20;;
39994;SDS011;25686;51.908;10.418;2023-11-19T00:48:10;0.30;;;0.30;;
39994;SDS011;25686;51.908;10.418;2023-11-19T00:50:11;0.30;;;0.30;;
39994;SDS011;25686;51.908;10.418;2023-11-19T00:52:13;0.30;;;0.30;;
39994;SDS011;25686;51.908;10.418;2023-11-19T00:54:14;0.30;;;0.30;;
39994;SDS011;25686;51.908;10.418;2023-11-19T00:56:15;0.32;;;0.32;;
39994;SDS011;25686;51.908;10.418;2023-11-19T00:58:17;0.43;;;0.32;;
39994;SDS011;25686;51.908;10.418;2023-11-19T01:00:18;0.80;;;0.43;;
39994;SDS011;25686;51.908;10.418;2023-11-19T01:02:19;0.70;;;0.50;;
39994;SDS011;25686;51.908;10.418;2023-11-19T01:04:20;0.40;;;0.40;;
39994;SDS011;25686;51.908;10.418;2023-11-19T01:06:30;0.50;;;0.50;;
39994;SDS011;25686;51.908;10.418;2023-11-19T01:08:32;0.40;;;0.40;;
39994;SDS011;25686;51.908;10.418;2023-11-19T01:10:38;1.30;;;0.50;;
39994;SDS011;25686;51.908;10.418;2023-11-19T01:12:39;0.40;;;0.40;;
39994;SDS011;25686;51.908;10.418;2023-11-19T01:14:40;0.40;;;0.40;;
39994;SDS011;25686;51.908;10.418;2023-11-19T01:16:41;2.33;;;0.50;;
39994;SDS011;25686;51.908;10.418;2023-11-19T01:18:42;0.30;;;0.30;;
39994;SDS011;25686;51.908;10.418;2023-11-19T01:20:43;0.82;;;0.40;;
39994;SDS011;25686;51.908;10.418;2023-11-19T01:22:44;0.30;;;0.30;;
39994;SDS011;25686;51.908;10.418;2023-11-19T01:24:45;0.40;;;0.40;;
39994;SDS011;25686;51.908;10.418;2023-11-19T01:26:46;0.40;;;0.40;;
39994;SDS011;25686;51.908;10.418;2023-11-19T01:28:48;0.30;;;0.30;;
39994;SDS011;25686;51.908;10.418;2023-11-19T01:30:52;0.30;;;0.30;;
39994;SDS011;25686;51.908;10.418;2023-11-19T01:32:53;0.38;;;0.38;;
39994;SDS011;25686;51.908;10.418;2023-11-19T01:34:55;0.40;;;0.40;;
39994;SDS011;25686;51.908;10.418;2023-11-19T01:36:56;0.30;;;0.30;;
39994;SDS011;25686;51.908;10.418;2023-11-19T01:38:57;0.30;;;0.30;;
39994;SDS011;25686;51.908;10.418;2023-11-19T01:40:58;0.20;;;0.20;;
39994;SDS011;25686;51.908;10.418;2023-11-19T01:42:59;0.30;;;0.30;;
39994;SDS011;25686;51.908;10.418;2023-11-19T01:45:00;0.30;;;0.30;;
39994;SDS011;25686;51.908;10.418;2023-11-19T01:47:02;0.30;;;0.30;;
39994;SDS011;25686;51.908;10.418;2023-11-19T01:49:04;0.80;;;0.25;;
39994;SDS011;25686;51.908;10.418;2023-11-19T01:51:05;0.30;;;0.30;;
39994;SDS011;25686;51.908;10.418;2023-11-19T01:53:07;0.22;;;0.22;;
39994;SDS011;25686;51.908;10.418;2023-11-19T01:55:08;0.10;;;0.10;;
39994;SDS011;25686;51.908;10.418;2023-11-19T01:57:10;0.73;;;0.30;;
39994;SDS011;25686;51.908;10.418;2023-11-19T01:59:11;0.10;;;0.10;;
39994;SDS011;25686;51.908;10.418;2023-11-19T02:01:13;0.17;;;0.17;;
39994;SDS011;25686;51.908;10.418;2023-11-19T02:03:15;0.13;;;0.13;;
39994;SDS011;25686;51.908;10.418;2023-11-19T02:05:17;0.25;;;0.25;;
39994;SDS011;25686;51.908;10.418;2023-11-19T02:07:18;0.57;;;0.20;;
39994;SDS011;25686;51.908;10.418;2023-11-19T02:09:19;0.15;;;0.15;;
39994;SDS011;25686;51.908;10.418;2023-11-19T02:11:20;0.30;;;0.30;;
39994;SDS011;25686;51.908;10.418;2023-11-19T02:13:21;0.80;;;0.30;;
39994;SDS011;25686;51.908;10.418;2023-11-19T02:15:22;0.30;;;0.25;;
39994;SDS011;25686;51.908;10.418;2023-11-19T02:17:27;0.20;;;0.20;;
39994;SDS011;25686;51.908;10.418;2023-11-19T02:19:29;0.17;;;0.15;;
39994;SDS011;25686;51.908;10.418;2023-11-19T02:21:29;0.80;;;0.20;;
39994;SDS011;25686;51.908;10.418;2023-11-19T02:23:30;0.20;;;0.20;;
39994;SDS011;25686;51.908;10.418;2023-11-19T02:25:32;0.40;;;0.30;;
39994;SDS011;25686;51.908;10.418;2023-11-19T02:29:40;0.20;;;0.20;;
39994;SDS011;25686;51.908;10.418;2023-11-19T02:31:41;0.43;;;0.20;;
39994;SDS011;25686;51.908;10.418;2023-11-19T02:33:42;0.55;;;0.22;;
39994;SDS011;25686;51.908;10.418;2023-11-19T02:35:43;0.20;;;0.13;;
39994;SDS011;25686;51.908;10.418;2023-11-19T02:37:44;0.32;;;0.30;;
39994;SDS011;25686;51.908;10.418;2023-11-19T02:39:45;2.35;;;0.10;;
39994;SDS011;25686;51.908;10.418;2023-11-19T02:41:46;0.60;;;0.10;;
39994;SDS011;25686;51.908;10.418;2023-11-19T02:43:47;0.10;;;0.10;;
39994;SDS011;25686;51.908;10.418;2023-11-19T02:45:48;1.20;;;0.20;;
39994;SDS011;25686;51.908;10.418;2023-11-19T02:47:51;0.43;;;0.13;;
39994;SDS011;25686;51.908;10.418;2023-11-19T02:49:52;0.17;;;0.10;;
39994;SDS011;25686;51.908;10.418;2023-11-19T02:51:53;0.10;;;0.10;;
39994;SDS011;25686;51.908;10.418;2023-11-19T02:53:54;0.10;;;0.10;;
39994;SDS011;25686;51.908;10.418;2023-11-19T02:55:55;0.10;;;0.10;;
39994;SDS011;25686;51.908;10.418;2023-11-19T02:58:01;0.10;;;0.10;;
39994;SDS011;25686;51.908;10.418;2023-11-19T03:00:08;0.10;;;0.10;;
39994;SDS011;25686;51.908;10.418;2023-11-19T03:02:12;0.10;;;0.10;;
39994;SDS011;25686;51.908;10.418;2023-11-19T03:04:15;0.10;;;0.10;;
39994;SDS011;25686;51.908;10.418;2023-11-19T03:06:20;0.25;;;0.10;;
39994;SDS011;25686;51.908;10.418;2023-11-19T03:08:24;0.13;;;0.13;;
39994;SDS011;25686;51.908;10.418;2023-11-19T03:10:25;0.10;;;0.10;;
39994;SDS011;25686;51.908;10.418;2023-11-19T03:12:26;0.40;;;0.20;;
39994;SDS011;25686;51.908;10.418;2023-11-19T03:14:27;0.28;;;0.20;;
39994;SDS011;25686;51.908;10.418;2023-11-19T03:16:28;0.20;;;0.20;;
39994;SDS011;25686;51.908;10.418;2023-11-19T03:18:29;0.20;;;0.20;;
39994;SDS011;25686;51.908;10.418;2023-11-19T03:20:30;0.30;;;0.30;;
39994;SDS011;25686;51.908;10.418;2023-11-19T03:22:31;1.60;;;0.40;;
39994;SDS011;25686;51.908;10.418;2023-11-19T03:24:34;0.40;;;0.40;;
39994;SDS011;25686;51.908;10.418;2023-11-19T03:26:35;0.47;;;0.47;;
39994;SDS011;25686;51.908;10.418;2023-11-19T03:28:37;0.43;;;0.43;;
39994;SDS011;25686;51.908;10.418;2023-11-19T03:30:38;0.40;;;0.40;;
39994;SDS011;25686;51.908;10.418;2023-11-19T03:32:39;0.47;;;0.47;;
39994;SDS011;25686;51.908;10.418;2023-11-19T03:34:41;1.95;;;0.47;;
39994;SDS011;25686;51.908;10.418;2023-11-19T03:36:41;0.30;;;0.30;;
39994;SDS011;25686;51.908;10.418;2023-11-19T03:38:43;0.47;;;0.47;;
39994;SDS011;25686;51.908;10.418;2023-11-19T03:40:44;0.30;;;0.30;;
39994;SDS011;25686;51.908;10.418;2023-11-19T03:42:48;1.25;;;0.40;;
39994;SDS011;25686;51.908;10.418;2023-11-19T03:44:49;0.30;;;0.30;;
39994;SDS011;25686;51.908;10.418;2023-11-19T03:46:50;0.30;;;0.30;;
39994;SDS011;25686;51.908;10.418;2023-11-19T03:48:51;0.25;;;0.25;;
39994;SDS011;25686;51.908;10.418;2023-11-19T03:50:52;0.30;;;0.30;;
39994;SDS011;25686;51.908;10.418;2023-11-19T03:52:53;0.50;;;0.50;;
39994;SDS011;25686;51.908;10.418;2023-11-19T03:54:54;0.43;;;0.43;;
39994;SDS011;25686;51.908;10.418;2023-11-19T03:56:55;0.55;;;0.50;;
39994;SDS011;25686;51.908;10.418;2023-11-19T03:58:56;0.50;;;0.45;;
39994;SDS011;25686;51.908;10.418;2023-11-19T04:00:57;0.50;;;0.50;;
39994;SDS011;25686;51.908;10.418;2023-11-19T04:02:58;0.80;;;0.50;;
39994;SDS011;25686;51.908;10.418;2023-11-19T04:04:59;1.27;;;0.88;;
39994;SDS011;25686;51.908;10.418;2023-11-19T04:07:00;2.45;;;0.68;;
39994;SDS011;25686;51.908;10.418;2023-11-19T04:09:03;0.60;;;0.60;;
39994;SDS011;25686;51.908;10.418;2023-11-19T04:11:04;2.35;;;0.82;;
39994;SDS011;25686;51.908;10.418;2023-11-19T04:13:05;2.67;;;0.90;;
39994;SDS011;25686;51.908;10.418;2023-11-19T04:15:06;2.20;;;0.80;;
39994;SDS011;25686;51.908;10.418;2023-11-19T04:17:08;2.05;;;1.08;;
39994;SDS011;25686;51.908;10.418;2023-11-19T04:19:09;2.05;;;1.10;;
39994;SDS011;25686;51.908;10.418;2023-11-19T04:21:10;1.45;;;1.00;;
39994;SDS011;25686;51.908;10.418;2023-11-19T04:23:11;1.65;;;1.20;;
39994;SDS011;25686;51.908;10.418;2023-11-19T04:25:12;1.00;;;0.80;;
39994;SDS011;25686;51.908;10.418;2023-11-19T04:27:15;1.80;;;0.73;;
39994;SDS011;25686;51.908;10.418;2023-11-19T04:29:16;0.95;;;0.93;;
39994;SDS011;25686;51.908;10.418;2023-11-19T04:31:17;1.88;;;0.70;;
39994;SDS011;25686;51.908;10.418;2023-11-19T04:33:18;0.98;;;0.80;;
39994;SDS011;25686;51.908;10.418;2023-11-19T04:35:19;0.90;;;0.90;;
39994;SDS011;25686;51.908;10.418;2023-11-19T04:37:21;0.77;;;0.77;;
39994;SDS011;25686;51.908;10.418;2023-11-19T04:39:22;2.15;;;1.35;;
39994;SDS011;25686;51.908;10.418;2023-11-19T04:41:23;1.65;;;1.00;;
39994;SDS011;25686;51.908;10.418;2023-11-19T04:43:24;1.40;;;1.30;;
39994;SDS011;25686;51.908;10.418;2023-11-19T04:45:25;2.03;;;0.90;;
39994;SDS011;25686;51.908;10.418;2023-11-19T04:47:26;1.48;;;1.10;;
39994;SDS011;25686;51.908;10.418;2023-11-19T04:49:26;1.63;;;1.05;;
39994;SDS011;25686;51.908;10.418;2023-11-19T04:51:27;1.75;;;1.17;;
39994;SDS011;25686;51.908;10.418;2023-11-19T04:53:29;1.33;;;1.00;;
39994;SDS011;25686;51.908;10.418;2023-11-19T04:55:30;1.67;;;0.75;;
39994;SDS011;25686;51.908;10.418;2023-11-19T04:57:31;0.30;;;0.30;;
39994;SDS011;25686;51.908;10.418;2023-11-19T04:59:34;1.20;;;0.32;;
39994;SDS011;25686;51.908;10.418;2023-11-19T05:01:35;0.22;;;0.20;;
39994;SDS011;25686;51.908;10.418;2023-11-19T05:03:36;0.20;;;0.20;;
39994;SDS011;25686;51.908;10.418;2023-11-19T05:05:37;1.45;;;0.30;;
39994;SDS011;25686;51.908;10.418;2023-11-19T05:07:38;1.55;;;0.30;;
39994;SDS011;25686;51.908;10.418;2023-11-19T05:09:39;0.65;;;0.32;;
39994;SDS011;25686;51.908;10.418;2023-11-19T05:11:40;0.95;;;0.30;;
39994;SDS011;25686;51.908;10.418;2023-11-19T05:13:41;0.73;;;0.50;;
39994;SDS011;25686;51.908;10.418;2023-11-19T05:15:45;1.75;;;0.65;;
39994;SDS011;25686;51.908;10.418;2023-11-19T05:17:45;1.35;;;0.80;;
39994;SDS011;25686;51.908;10.418;2023-11-19T05:19:46;3.38;;;0.80;;
39994;SDS011;25686;51.908;10.418;2023-11-19T05:21:48;2.97;;;1.02;;
39994;SDS011;25686;51.908;10.418;2023-11-19T05:23:52;1.52;;;0.73;;
39994;SDS011;25686;51.908;10.418;2023-11-19T05:25:54;2.55;;;1.00;;
39994;SDS011;25686;51.908;10.418;2023-11-19T05:27:55;1.75;;;1.10;;
39994;SDS011;25686;51.908;10.418;2023-11-19T05:29:56;1.33;;;1.00;;
39994;SDS011;25686;51.908;10.418;2023-11-19T05:31:57;3.90;;;1.30;;
39994;SDS011;25686;51.908;10.418;2023-11-19T05:33:58;4.63;;;1.50;;
39994;SDS011;25686;51.908;10.418;2023-11-19T05:35:59;4.40;;;1.50;;
39994;SDS011;25686;51.908;10.418;2023-11-19T05:38:00;5.28;;;1.52;;
39994;SDS011;25686;51.908;10.418;2023-11-19T05:40:02;4.20;;;1.67;;
39994;SDS011;25686;51.908;10.418;2023-11-19T05:42:06;6.57;;;1.60;;
39994;SDS011;25686;51.908;10.418;2023-11-19T05:44:07;8.02;;;1.80;;
39994;SDS011;25686;51.908;10.418;2023-11-19T05:46:08;6.47;;;1.80;;
39994;SDS011;25686;51.908;10.418;2023-11-19T05:48:09;8.90;;;2.25;;
39994;SDS011;25686;51.908;10.418;2023-11-19T05:50:10;4.90;;;1.85;;
39994;SDS011;25686;51.908;10.418;2023-11-19T05:52:11;7.45;;;2.13;;
39994;SDS011;25686;51.908;10.418;2023-11-19T05:54:12;8.48;;;2.15;;
39994;SDS011;25686;51.908;10.418;2023-11-19T05:56:13;6.40;;;2.15;;
39994;SDS011;25686;51.908;10.418;2023-11-19T05:58:15;6.15;;;2.20;;
39994;SDS011;25686;51.908;10.418;2023-11-19T06:00:17;8.93;;;2.03;;
39994;SDS011;25686;51.908;10.418;2023-11-19T06:02:18;9.15;;;2.53;;
39994;SDS011;25686;51.908;10.418;2023-11-19T06:04:19;7.28;;;2.00;;
39994;SDS011;25686;51.908;10.418;2023-11-19T06:06:20;9.10;;;2.42;;
39994;SDS011;25686;51.908;10.418;2023-11-19T06:08:21;6.00;;;2.72;;
39994;SDS011;25686;51.908;10.418;2023-11-19T06:10:22;8.02;;;2.30;;
39994;SDS011;25686;51.908;10.418;2023-11-19T06:12:29;9.43;;;2.42;;
39994;SDS011;25686;51.908;10.418;2023-11-19T06:14:31;5.47;;;2.60;;
39994;SDS011;25686;51.908;10.418;2023-11-19T06:16:32;11.23;;;4.40;;
39994;SDS011;25686;51.908;10.418;2023-11-19T06:18:33;8.02;;;3.90;;
39994;SDS011;25686;51.908;10.418;2023-11-19T06:20:34;6.60;;;2.60;;
39994;SDS011;25686;51.908;10.418;2023-11-19T06:22:36;9.32;;;2.42;;
39994;SDS011;25686;51.908;10.418;2023-11-19T06:24:36;7.07;;;2.00;;
39994;SDS011;25686;51.908;10.418;2023-11-19T06:26:37;7.95;;;2.28;;
39994;SDS011;25686;51.908;10.418;2023-11-19T06:28:39;9.32;;;2.50;;
39994;SDS011;25686;51.908;10.418;2023-11-19T06:30:40;12.23;;;2.78;;
39994;SDS011;25686;51.908;10.418;2023-11-19T06:32:41;10.68;;;2.67;;
39994;SDS011;25686;51.908;10.418;2023-11-19T06:34:42;10.20;;;2.80;;
39994;SDS011;25686;51.908;10.418;2023-11-19T06:36:43;8.90;;;2.75;;
39994;SDS011;25686;51.908;10.418;2023-11-19T06:38:44;9.65;;;2.78;;
39994;SDS011;25686;51.908;10.418;2023-11-19T06:40:45;10.32;;;2.55;;
39994;SDS011;25686;51.908;10.418;2023-11-19T06:42:46;8.13;;;3.00;;
39994;SDS011;25686;51.908;10.418;2023-11-19T06:44:47;11.50;;;2.88;;
39994;SDS011;25686;51.908;10.418;2023-11-19T06:46:48;8.75;;;2.78;;
39994;SDS011;25686;51.908;10.418;2023-11-19T06:48:49;4.85;;;2.65;;
39994;SDS011;25686;51.908;10.418;2023-11-19T06:50:51;7.40;;;2.60;;
39994;SDS011;25686;51.908;10.418;2023-11-19T06:52:52;7.75;;;2.55;;
39994;SDS011;25686;51.908;10.418;2023-11-19T06:54:53;6.28;;;2.20;;
39994;SDS011;25686;51.908;10.418;2023-11-19T06:56:54;7.82;;;2.70;;
39994;SDS011;25686;51.908;10.418;2023-11-19T06:58:55;9.30;;;2.42;;
39994;SDS011;25686;51.908;10.418;2023-11-19T07:00:56;7.65;;;2.38;;
39994;SDS011;25686;51.908;10.418;2023-11-19T07:02:57;9.07;;;2.90;;
39994;SDS011;25686;51.908;10.418;2023-11-19T07:04:58;11.73;;;2.90;;
39994;SDS011;25686;51.908;10.418;2023-11-19T07:07:00;10.57;;;2.67;;
39994;SDS011;25686;51.908;10.418;2023-11-19T07:09:01;12.45;;;3.20;;
39994;SDS011;25686;51.908;10.418;2023-11-19T07:11:09;11.75;;;3.33;;
39994;SDS011;25686;51.908;10.418;2023-11-19T07:13:11;9.15;;;3.15;;
39994;SDS011;25686;51.908;10.418;2023-11-19T07:15:12;11.43;;;3.53;;
39994;SDS011;25686;51.908;10.418;2023-11-19T07:17:13;12.30;;;3.60;;
39994;SDS011;25686;51.908;10.418;2023-11-19T07:19:15;12.75;;;4.10;;
39994;SDS011;25686;51.908;10.418;2023-11-19T07:21:16;14.77;;;4.00;;
39994;SDS011;25686;51.908;10.418;2023-11-19T07:23:17;13.43;;;3.85;;
39994;SDS011;25686;51.908;10.418;2023-11-19T07:25:18;13.27;;;3.75;;
39994;SDS011;25686;51.908;10.418;2023-11-19T07:27:19;13.40;;;3.80;;
39994;SDS011;25686;51.908;10.418;2023-11-19T07:29:20;12.10;;;3.63;;
39994;SDS011;25686;51.908;10.418;2023-11-19T07:31:21;8.98;;;3.28;;
39994;SDS011;25686;51.908;10.418;2023-11-19T07:33:23;12.00;;;3.40;;
39994;SDS011;25686;51.908;10.418;2023-11-19T07:35:24;15.23;;;3.28;;
39994;SDS011;25686;51.908;10.418;2023-11-19T07:37:25;17.48;;;3.53;;
39994;SDS011;25686;51.908;10.418;2023-11-19T07:39:26;18.58;;;3.50;;
39994;SDS011;25686;51.908;10.418;2023-11-19T07:41:27;12.98;;;3.20;;
39994;SDS011;25686;51.908;10.418;2023-11-19T07:43:28;17.42;;;3.63;;
39994;SDS011;25686;51.908;10.418;2023-11-19T07:45:29;15.25;;;3.45;;
39994;SDS011;25686;51.908;10.418;2023-11-19T07:47:30;14.70;;;3.72;;
39994;SDS011;25686;51.908;10.418;2023-11-19T07:49:31;20.20;;;3.83;;
39994;SDS011;25686;51.908;10.418;2023-11-19T07:51:32;15.13;;;2.92;;
39994;SDS011;25686;51.908;10.418;2023-11-19T07:53:33;17.25;;;2.88;;
39994;SDS011;25686;51.908;10.418;2023-11-19T07:55:34;17.27;;;3.20;;
39994;SDS011;25686;51.908;10.418;2023-11-19T07:57:35;24.27;;;3.40;;
39994;SDS011;25686;51.908;10.418;2023-11-19T07:59:36;16.42;;;3.42;;
39994;SDS011;25686;51.908;10.418;2023-11-19T08:01:37;13.73;;;3.10;;
39994;SDS011;25686;51.908;10.418;2023-11-19T08:03:38;14.43;;;2.90;;
39994;SDS011;25686;51.908;10.418;2023-11-19T08:05:39;17.23;;;3.38;;
39994;SDS011;25686;51.908;10.418;2023-11-19T08:07:41;18.63;;;3.15;;
39994;SDS011;25686;51.908;10.418;2023-11-19T08:09:42;14.63;;;3.80;;
39994;SDS011;25686;51.908;10.418;2023-11-19T08:11:43;22.90;;;3.22;;
39994;SDS011;25686;51.908;10.418;2023-11-19T08:13:44;16.95;;;3.47;;
39994;SDS011;25686;51.908;10.418;2023-11-19T08:15:45;15.15;;;3.33;;
39994;SDS011;25686;51.908;10.418;2023-11-19T08:17:47;19.60;;;3.60;;
39994;SDS011;25686;51.908;10.418;2023-11-19T08:19:48;15.48;;;3.20;;
39994;SDS011;25686;51.908;10.418;2023-11-19T08:21:49;13.98;;;3.40;;
39994;SDS011;25686;51.908;10.418;2023-11-19T08:23:50;14.85;;;3.13;;
39994;SDS011;25686;51.908;10.418;2023-11-19T08:25:51;14.77;;;2.88;;
39994;SDS011;25686;51.908;10.418;2023-11-19T08:27:52;19.25;;;3.03;;
39994;SDS011;25686;51.908;10.418;2023-11-19T08:29:54;16.77;;;3.85;;
39994;SDS011;25686;51.908;10.418;2023-11-19T08:31:59;22.70;;;3.70;;
39994;SDS011;25686;51.908;10.418;2023-11-19T08:34:00;17.30;;;3.25;;
39994;SDS011;25686;51.908;10.418;2023-11-19T08:36:01;21.77;;;3.72;;
39994;SDS011;25686;51.908;10.418;2023-11-19T08:38:04;24.63;;;3.40;;
39994;SDS011;25686;51.908;10.418;2023-11-19T08:40:05;20.30;;;3.83;;
39994;SDS011;25686;51.908;10.418;2023-11-19T08:42:07;17.25;;;3.00;;
39994;SDS011;25686;51.908;10.418;2023-11-19T08:44:08;19.45;;;3.47;;
39994;SDS011;25686;51.908;10.418;2023-11-19T08:46:09;19.88;;;3.33;;
39994;SDS011;25686;51.908;10.418;2023-11-19T08:48:11;18.98;;;3.40;;
39994;SDS011;25686;51.908;10.418;2023-11-19T08:50:12;20.30;;;3.85;;
39994;SDS011;25686;51.908;10.418;2023-11-19T08:52:13;21.42;;;3.30;;
39994;SDS011;25686;51.908;10.418;2023-11-19T08:54:14;20.52;;;3.13;;
39994;SDS011;25686;51.908;10.418;2023-11-19T08:56:15;26.52;;;3.85;;
39994;SDS011;25686;51.908;10.418;2023-11-19T08:58:16;22.25;;;4.13;;
39994;SDS011;25686;51.908;10.418;2023-11-19T09:00:18;18.40;;;3.33;;
39994;SDS011;25686;51.908;10.418;2023-11-19T09:02:19;27.52;;;3.67;;
39994;SDS011;25686;51.908;10.418;2023-11-19T09:04:20;23.00;;;3.85;;
39994;SDS011;25686;51.908;10.418;2023-11-19T09:06:22;23.55;;;4.10;;
39994;SDS011;25686;51.908;10.418;2023-11-19T09:08:23;24.02;;;4.65;;
39994;SDS011;25686;51.908;10.418;2023-11-19T09:10:25;27.92;;;3.85;;
39994;SDS011;25686;51.908;10.418;2023-11-19T09:12:27;23.05;;;4.47;;
39994;SDS011;25686;51.908;10.418;2023-11-19T09:14:28;19.48;;;3.83;;
39994;SDS011;25686;51.908;10.418;2023-11-19T09:16:29;22.27;;;4.05;;
39994;SDS011;25686;51.908;10.418;2023-11-19T09:18:30;25.15;;;4.20;;
39994;SDS011;25686;51.908;10.418;2023-11-19T09:20:31;24.98;;;4.50;;
39994;SDS011;25686;51.908;10.418;2023-11-19T09:22:38;27.88;;;4.30;;
39994;SDS011;25686;51.908;10.418;2023-11-19T09:24:39;24.15;;;3.95;;
39994;SDS011;25686;51.908;10.418;2023-11-19T09:26:40;26.10;;;4.50;;
39994;SDS011;25686;51.908;10.418;2023-11-19T09:28:41;31.02;;;5.28;;
39994;SDS011;25686;51.908;10.418;2023-11-19T09:30:42;29.02;;;5.00;;
39994;SDS011;25686;51.908;10.418;2023-11-19T09:32:43;23.80;;;4.50;;
39994;SDS011;25686;51.908;10.418;2023-11-19T09:34:44;23.38;;;4.43;;
39994;SDS011;25686;51.908;10.418;2023-11-19T09:36:46;21.67;;;4.40;;
39994;SDS011;25686;51.908;10.418;2023-11-19T09:38:47;21.85;;;4.78;;
39994;SDS011;25686;51.908;10.418;2023-11-19T09:40:48;22.15;;;5.45;;
39994;SDS011;25686;51.908;10.418;2023-11-19T09:42:49;24.48;;;3.95;;
39994;SDS011;25686;51.908;10.418;2023-11-19T09:44:50;19.90;;;4.10;;
39994;SDS011;25686;51.908;10.418;2023-11-19T09:46:52;24.02;;;4.30;;
39994;SDS011;25686;51.908;10.418;2023-11-19T09:48:53;21.17;;;4.60;;
39994;SDS011;25686;51.908;10.418;2023-11-19T09:50:56;20.08;;;4.50;;
39994;SDS011;25686;51.908;10.418;2023-11-19T09:52:58;18.00;;;3.78;;
39994;SDS011;25686;51.908;10.418;2023-11-19T09:54:59;25.02;;;4.68;;
39994;SDS011;25686;51.908;10.418;2023-11-19T09:57:00;24.35;;;4.85;;
39994;SDS011;25686;51.908;10.418;2023-11-19T09:59:05;22.58;;;4.65;;
39994;SDS011;25686;51.908;10.418;2023-11-19T10:01:06;23.88;;;4.70;;
39994;SDS011;25686;51.908;10.418;2023-11-19T10:03:11;19.73;;;3.85;;
39994;SDS011;25686;51.908;10.418;2023-11-19T10:05:15;26.85;;;4.47;;
39994;SDS011;25686;51.908;10.418;2023-11-19T10:07:16;21.85;;;4.45;;
39994;SDS011;25686;51.908;10.418;2023-11-19T10:09:17;31.15;;;4.85;;
39994;SDS011;25686;51.908;10.418;2023-11-19T10:11:19;20.42;;;4.20;;
39994;SDS011;25686;51.908;10.418;2023-11-19T10:13:20;22.67;;;4.43;;
39994;SDS011;25686;51.908;10.418;2023-11-19T10:15:27;22.83;;;4.97;;
39994;SDS011;25686;51.908;10.418;2023-11-19T10:17:32;23.65;;;4.15;;
39994;SDS011;25686;51.908;10.418;2023-11-19T10:19:33;22.48;;;3.88;;
39994;SDS011;25686;51.908;10.418;2023-11-19T10:21:35;23.83;;;4.40;;
39994;SDS011;25686;51.908;10.418;2023-11-19T10:23:55;19.80;;;4.00;;
39994;SDS011;25686;51.908;10.418;2023-11-19T10:26:03;23.00;;;4.25;;
39994;SDS011;25686;51.908;10.418;2023-11-19T10:28:07;23.70;;;4.32;;
39994;SDS011;25686;51.908;10.418;2023-11-19T10:30:08;16.95;;;3.88;;
39994;SDS011;25686;51.908;10.418;2023-11-19T10:32:10;23.13;;;3.75;;
39994;SDS011;25686;51.908;10.418;2023-11-19T10:34:24;25.88;;;4.40;;
39994;SDS011;25686;51.908;10.418;2023-11-19T10:36:38;19.88;;;3.97;;
39994;SDS011;25686;51.908;10.418;2023-11-19T10:38:50;19.42;;;3.83;;
39994;SDS011;25686;51.908;10.418;2023-11-19T10:40:52;28.23;;;4.47;;
39994;SDS011;25686;51.908;10.418;2023-11-19T10:43:01;20.35;;;4.07;;
39994;SDS011;25686;51.908;10.418;2023-11-19T10:45:03;16.98;;;3.88;;
39994;SDS011;25686;51.908;10.418;2023-11-19T10:47:05;17.55;;;3.80;;
39994;SDS011;25686;51.908;10.418;2023-11-19T10:49:07;28.63;;;4.40;;
39994;SDS011;25686;51.908;10.418;2023-11-19T10:51:08;23.58;;;4.43;;
39994;SDS011;25686;51.908;10.418;2023-11-19T10:53:11;20.95;;;4.32;;
39994;SDS011;25686;51.908;10.418;2023-11-19T10:55:15;20.25;;;4.03;;
39994;SDS011;25686;51.908;10.418;2023-11-19T10:57:22;22.30;;;4.80;;
39994;SDS011;25686;51.908;10.418;2023-11-19T10:59:29;23.70;;;4.15;;
39994;SDS011;25686;51.908;10.418;2023-11-19T11:01:33;21.40;;;4.45;;
39994;SDS011;25686;51.908;10.418;2023-11-19T11:03:38;27.02;;;4.53;;
39994;SDS011;25686;51.908;10.418;2023-11-19T11:05:40;26.50;;;4.80;;
39994;SDS011;25686;51.908;10.418;2023-11-19T11:07:41;22.92;;;4.90;;
39994;SDS011;25686;51.908;10.418;2023-11-19T11:09:45;24.58;;;4.88;;
39994;SDS011;25686;51.908;10.418;2023-11-19T11:11:48;23.55;;;4.40;;
39994;SDS011;25686;51.908;10.418;2023-11-19T11:13:50;25.17;;;4.90;;
39994;SDS011;25686;51.908;10.418;2023-11-19T11:15:53;26.55;;;5.10;;
39994;SDS011;25686;51.908;10.418;2023-11-19T11:18:03;26.33;;;5.03;;
39994;SDS011;25686;51.908;10.418;2023-11-19T11:20:07;26.05;;;4.93;;
39994;SDS011;25686;51.908;10.418;2023-11-19T11:22:09;25.67;;;4.82;;
39994;SDS011;25686;51.908;10.418;2023-11-19T11:28:36;18.15;;;3.88;;
39994;SDS011;25686;51.908;10.418;2023-11-19T11:37:03;19.58;;;4.10;;
39994;SDS011;25686;51.908;10.418;2023-11-19T11:39:07;22.67;;;4.68;;
39994;SDS011;25686;51.908;10.418;2023-11-19T11:45:38;23.45;;;4.63;;
39994;SDS011;25686;51.908;10.418;2023-11-19T11:49:43;19.25;;;3.90;;
39994;SDS011;25686;51.908;10.418;2023-11-19T11:53:45;19.15;;;4.22;;
39994;SDS011;25686;51.908;10.418;2023-11-19T11:57:49;26.02;;;4.50;;
39994;SDS011;25686;51.908;10.418;2023-11-19T11:59:50;22.20;;;3.85;;
39994;SDS011;25686;51.908;10.418;2023-11-19T12:01:58;23.42;;;4.40;;
39994;SDS011;25686;51.908;10.418;2023-11-19T12:03:59;23.60;;;4.40;;
39994;SDS011;25686;51.908;10.418;2023-11-19T12:06:00;24.52;;;4.55;;
39994;SDS011;25686;51.908;10.418;2023-11-19T12:08:03;22.95;;;4.70;;
39994;SDS011;25686;51.908;10.418;2023-11-19T12:10:06;27.98;;;4.10;;
39994;SDS011;25686;51.908;10.418;2023-11-19T12:14:14;28.70;;;4.68;;
39994;SDS011;25686;51.908;10.418;2023-11-19T12:16:15;21.70;;;4.40;;
39994;SDS011;25686;51.908;10.418;2023-11-19T12:18:16;24.60;;;4.10;;
39994;SDS011;25686;51.908;10.418;2023-11-19T12:20:20;24.02;;;3.78;;
39994;SDS011;25686;51.908;10.418;2023-11-19T12:22:23;25.70;;;4.25;;
39994;SDS011;25686;51.908;10.418;2023-11-19T12:24:25;22.52;;;4.13;;